createdAt,value
2022-12-03T00:00:20.184Z,-11.73
2022-12-03T00:02:48.633Z,-11.67
2022-12-03T00:05:17.140Z,-11.74
2022-12-03T00:07:45.723Z,-11.73
2022-12-03T00:10:15.538Z,-12.07
2022-12-03T00:12:43.864Z,-11.71
2022-12-03T00:15:12.974Z,-11.83
2022-12-03T00:17:41.434Z,-11.94
2022-12-03T00:20:10.646Z,-11.82
2022-12-03T00:22:39.021Z,-11.85
2022-12-03T00:25:10.588Z,-11.88
2022-12-03T00:27:42.550Z,-11.91
2022-12-03T00:30:15.266Z,-12.06
2022-12-03T00:32:44.687Z,-11.85
2022-12-03T00:35:13.020Z,-11.90
2022-12-03T00:37:41.436Z,-12.06
2022-12-03T00:40:11.813Z,-12.20
2022-12-03T00:42:42.472Z,-11.91
2022-12-03T00:45:11.539Z,-12.29
2022-12-03T00:47:40.002Z,-12.27
2022-12-03T00:50:09.462Z,-12.01
2022-12-03T00:52:37.791Z,-12.11
2022-12-03T00:55:10.042Z,-12.31
2022-12-03T00:57:38.402Z,-12.04
2022-12-03T01:00:09.967Z,-12.00
2022-12-03T01:02:38.376Z,-12.04
2022-12-03T01:05:07.761Z,-12.51
2022-12-03T01:07:38.896Z,-12.10
2022-12-03T01:10:08.706Z,-12.12
2022-12-03T01:12:37.072Z,-12.10
2022-12-03T01:15:07.997Z,-12.12
2022-12-03T01:17:36.413Z,-12.38
2022-12-03T01:20:08.082Z,-12.28
2022-12-03T01:22:38.746Z,-12.12
2022-12-03T01:25:07.890Z,-12.17
2022-12-03T01:27:36.209Z,-12.12
2022-12-03T01:30:10.106Z,-12.41
2022-12-03T01:32:37.473Z,-12.17
2022-12-03T01:35:06.982Z,-12.29
2022-12-03T01:37:35.262Z,-12.41
2022-12-03T01:40:03.582Z,-12.47
2022-12-03T01:42:35.188Z,-12.34
2022-12-03T01:45:05.143Z,-12.63
2022-12-03T01:47:36.114Z,-12.38
2022-12-03T01:50:08.183Z,-12.42
2022-12-03T01:52:39.048Z,-12.41
2022-12-03T01:55:09.341Z,-12.51
2022-12-03T01:57:41.970Z,-12.60
2022-12-03T02:00:15.022Z,-12.80
2022-12-03T02:02:44.874Z,-12.75
2022-12-03T02:05:18.679Z,-12.97
2022-12-03T02:07:47.358Z,-12.86
2022-12-03T02:10:17.410Z,-12.98
2022-12-03T02:12:48.797Z,-13.07
2022-12-03T02:15:17.124Z,-12.94
2022-12-03T02:17:47.045Z,-12.92
2022-12-03T02:20:18.340Z,-12.90
2022-12-03T02:22:50.385Z,-13.02
2022-12-03T02:25:22.894Z,-12.99
2022-12-03T02:27:53.664Z,-13.12
2022-12-03T02:30:24.281Z,-13.25
2022-12-03T02:32:54.081Z,-13.04
2022-12-03T02:35:24.761Z,-13.09
2022-12-03T02:37:56.480Z,-13.08
2022-12-03T02:40:28.946Z,-13.12
2022-12-03T02:42:59.338Z,-13.13
2022-12-03T02:45:29.793Z,-13.12
2022-12-03T02:48:00.342Z,-13.20
2022-12-03T02:50:31.516Z,-13.26
2022-12-03T02:53:01.682Z,-13.23
2022-12-03T02:55:36.874Z,-13.22
2022-12-03T02:58:07.538Z,-13.21
2022-12-03T03:00:36.937Z,-13.50
2022-12-03T03:03:06.297Z,-13.24
2022-12-03T03:05:37.044Z,-13.47
2022-12-03T03:08:06.474Z,-13.49
2022-12-03T03:10:36.953Z,-13.40
2022-12-03T03:13:08.289Z,-13.35
2022-12-03T03:15:38.534Z,-13.23
2022-12-03T03:18:07.219Z,-13.25
2022-12-03T03:20:35.699Z,-13.44
2022-12-03T03:23:07.643Z,-13.53
2022-12-03T03:25:37.415Z,-13.62
2022-12-03T03:28:06.220Z,-13.41
2022-12-03T03:30:35.449Z,-13.21
2022-12-03T03:33:03.770Z,-13.21
2022-12-03T03:35:32.262Z,-13.19
2022-12-03T03:38:01.123Z,-13.23
2022-12-03T03:40:29.593Z,-13.37
2022-12-03T03:42:59.764Z,-13.25
2022-12-03T03:45:29.567Z,-13.51
2022-12-03T03:47:58.708Z,-13.18
2022-12-03T03:50:27.396Z,-13.27
2022-12-03T03:52:56.421Z,-13.35
2022-12-03T03:55:24.928Z,-13.39
2022-12-03T03:57:53.502Z,-13.45
2022-12-03T04:00:23.394Z,-13.42
2022-12-03T04:02:51.778Z,-13.38
2022-12-03T04:05:21.972Z,-13.38
2022-12-03T04:07:50.465Z,-13.44
2022-12-03T04:10:32.724Z,-13.54
2022-12-03T04:13:01.519Z,-13.55
2022-12-03T04:15:31.386Z,-13.53
2022-12-03T04:18:17.202Z,-13.56
2022-12-03T04:20:45.587Z,-13.78
2022-12-03T04:23:14.138Z,-13.59
2022-12-03T04:26:00.109Z,-13.61
2022-12-03T04:28:45.988Z,-13.63
2022-12-03T04:31:33.294Z,-13.60
2022-12-03T04:34:19.095Z,-13.78
2022-12-03T04:36:48.004Z,-13.91
2022-12-03T04:39:16.440Z,-13.70
2022-12-03T04:41:44.732Z,-13.74
2022-12-03T04:44:30.725Z,-13.75
2022-12-03T04:47:01.740Z,-13.74
2022-12-03T04:49:30.084Z,-13.72
2022-12-03T04:51:58.409Z,-13.79
2022-12-03T04:54:26.747Z,-13.84
2022-12-03T04:56:55.050Z,-13.80
2022-12-03T04:59:23.319Z,-13.99
2022-12-03T05:01:51.686Z,-14.11
2022-12-03T05:04:21.532Z,-13.84
2022-12-03T05:06:49.896Z,-13.94
2022-12-03T05:09:18.462Z,-13.99
2022-12-03T05:11:46.814Z,-14.12
2022-12-03T05:14:15.194Z,-14.25
2022-12-03T05:16:46.011Z,-14.08
2022-12-03T05:19:14.362Z,-14.22
2022-12-03T05:21:43.063Z,-14.34
2022-12-03T05:24:11.502Z,-14.53
2022-12-03T05:26:39.788Z,-14.32
2022-12-03T05:29:08.236Z,-14.24
2022-12-03T05:31:36.624Z,-14.34
2022-12-03T05:34:06.056Z,-14.24
2022-12-03T05:36:37.321Z,-14.28
2022-12-03T05:39:07.021Z,-14.34
2022-12-03T05:42:01.101Z,-14.37
2022-12-03T05:44:29.485Z,-14.35
2022-12-03T05:46:57.795Z,-14.29
2022-12-03T05:49:26.137Z,-14.34
2022-12-03T05:51:58.461Z,-14.23
2022-12-03T05:54:28.552Z,-14.13
2022-12-03T05:56:59.952Z,-14.17
2022-12-03T05:59:28.284Z,-14.12
2022-12-03T06:01:56.667Z,-14.02
2022-12-03T06:04:26.121Z,-14.23
2022-12-03T06:06:54.430Z,-14.04
2022-12-03T06:09:22.930Z,-13.93
2022-12-03T06:11:54.265Z,-13.96
2022-12-03T06:14:22.884Z,-13.78
2022-12-03T06:19:19.814Z,-13.68
2022-12-03T06:24:16.609Z,-13.64
2022-12-03T06:26:45.068Z,-13.43
2022-12-03T06:29:15.547Z,-13.38
2022-12-03T06:31:44.005Z,-13.36
2022-12-03T06:34:12.417Z,-13.32
2022-12-03T06:36:40.751Z,-13.47
2022-12-03T06:39:09.143Z,-13.15
2022-12-03T06:41:37.480Z,-13.34
2022-12-03T06:44:06.149Z,-13.18
2022-12-03T06:46:36.119Z,-12.88
2022-12-03T06:49:04.718Z,-12.90
2022-12-03T06:51:33.196Z,-13.16
2022-12-03T06:54:01.529Z,-13.00
2022-12-03T06:56:35.806Z,-12.64
2022-12-03T06:59:06.262Z,-12.75
2022-12-03T07:01:36.041Z,-12.40
2022-12-03T07:04:04.448Z,-12.40
2022-12-03T07:06:32.814Z,-12.44
2022-12-03T07:09:01.169Z,-12.18
2022-12-03T07:11:40.220Z,-12.21
2022-12-03T07:14:11.449Z,-12.08
2022-12-03T07:16:43.534Z,-12.12
2022-12-03T07:19:12.398Z,-11.93
2022-12-03T07:21:40.849Z,-11.89
2022-12-03T07:24:10.415Z,-12.06
2022-12-03T07:26:38.819Z,-11.73
2022-12-03T07:29:07.279Z,-12.05
2022-12-03T07:31:37.483Z,-11.72
2022-12-03T07:34:07.704Z,-11.62
2022-12-03T07:36:39.089Z,-11.73
2022-12-03T07:39:07.579Z,-11.59
2022-12-03T07:41:36.613Z,-11.43
2022-12-03T07:44:10.683Z,-11.55
2022-12-03T07:46:46.082Z,-11.30
2022-12-03T07:49:16.417Z,-11.14
2022-12-03T07:51:53.436Z,-11.12
2022-12-03T07:54:22.273Z,-11.25
2022-12-03T07:56:51.122Z,-11.09
2022-12-03T07:59:19.859Z,-11.35
2022-12-03T08:01:48.325Z,-11.01
2022-12-03T08:04:19.207Z,-10.94
2022-12-03T08:06:47.531Z,-10.85
2022-12-03T08:09:16.607Z,-10.84
2022-12-03T08:11:49.273Z,-10.77
2022-12-03T08:14:20.205Z,-10.74
2022-12-03T08:16:49.321Z,-10.53
2022-12-03T08:19:22.915Z,-10.55
2022-12-03T08:21:53.127Z,-10.46
2022-12-03T08:24:24.844Z,-10.37
2022-12-03T08:26:53.607Z,-10.25
2022-12-03T08:29:21.962Z,-10.25
2022-12-03T08:31:55.410Z,-10.45
2022-12-03T08:34:27.243Z,-10.25
2022-12-03T08:37:00.005Z,-9.88
2022-12-03T08:39:30.968Z,-10.02
2022-12-03T08:42:21.430Z,-9.74
2022-12-03T08:44:50.400Z,-9.71
2022-12-03T08:47:21.691Z,-9.95
2022-12-03T08:49:58.252Z,-9.97
2022-12-03T08:52:32.471Z,-9.78
2022-12-03T08:55:02.076Z,-9.70
2022-12-03T08:57:33.018Z,-9.68
2022-12-03T09:00:07.845Z,-9.64
2022-12-03T09:02:36.100Z,-9.51
2022-12-03T09:05:15.411Z,-9.55
2022-12-03T09:07:43.807Z,-9.60
2022-12-03T09:10:13.465Z,-9.71
2022-12-03T09:12:42.082Z,-9.70
2022-12-03T09:15:13.662Z,-9.60
2022-12-03T09:17:44.908Z,-9.74
2022-12-03T09:20:16.814Z,-9.45
2022-12-03T09:22:45.270Z,-9.31
2022-12-03T09:25:13.613Z,-9.40
2022-12-03T09:27:42.650Z,-9.43
2022-12-03T09:30:13.832Z,-9.67
2022-12-03T09:32:42.232Z,-9.40
2022-12-03T09:35:11.049Z,-9.37
2022-12-03T09:37:40.956Z,-9.37
2022-12-03T09:40:10.430Z,-9.34
2022-12-03T09:42:42.271Z,-9.29
2022-12-03T09:45:13.480Z,-9.38
2022-12-03T09:47:44.718Z,-9.36
2022-12-03T09:50:14.740Z,-9.26
2022-12-03T09:52:45.590Z,-9.25
2022-12-03T09:55:26.626Z,-9.47
2022-12-03T09:57:56.125Z,-9.15
2022-12-03T10:00:26.257Z,-9.43
2022-12-03T10:02:56.733Z,-9.24
2022-12-03T10:05:27.239Z,-9.24
2022-12-03T10:08:04.798Z,-9.17
2022-12-03T10:10:34.675Z,-9.40
2022-12-03T10:13:03.357Z,-9.17
2022-12-03T10:15:34.531Z,-9.33
2022-12-03T10:18:12.196Z,-9.51
2022-12-03T10:20:40.550Z,-9.08
2022-12-03T10:23:10.349Z,-9.06
2022-12-03T10:25:51.844Z,-8.88
2022-12-03T10:28:29.505Z,-9.12
2022-12-03T10:30:59.637Z,-9.00
2022-12-03T10:33:33.758Z,-9.11
2022-12-03T10:36:20.587Z,-8.82
2022-12-03T10:39:07.655Z,-8.91
2022-12-03T10:41:36.153Z,-8.96
2022-12-03T10:44:17.570Z,-8.90
2022-12-03T10:46:46.387Z,-8.76
2022-12-03T10:49:18.205Z,-8.82
2022-12-03T10:51:47.874Z,-8.85
2022-12-03T10:54:20.014Z,-8.74
2022-12-03T10:56:50.051Z,-8.74
2022-12-03T10:59:23.334Z,-8.81
2022-12-03T11:01:52.283Z,-8.74
2022-12-03T11:04:23.295Z,-8.69
2022-12-03T11:06:52.147Z,-9.05
2022-12-03T11:09:24.739Z,-8.77
2022-12-03T11:11:54.061Z,-8.72
2022-12-03T11:15:06.254Z,-8.57
2022-12-03T11:17:44.993Z,-8.57
2022-12-03T11:20:53.873Z,-8.73
2022-12-03T11:23:55.288Z,-8.63
2022-12-03T11:26:58.644Z,-8.90
2022-12-03T11:29:56.161Z,-8.76
2022-12-03T11:33:09.862Z,-8.64
2022-12-03T11:36:11.925Z,-8.59
2022-12-03T11:38:55.789Z,-8.75
2022-12-03T11:41:32.106Z,-8.68
2022-12-03T11:44:31.417Z,-8.51
2022-12-03T11:47:04.186Z,-8.53
2022-12-03T11:49:37.866Z,-8.65
2022-12-03T11:52:27.331Z,-8.64
2022-12-03T11:55:02.923Z,-8.63
2022-12-03T11:57:43.340Z,-8.65
2022-12-03T12:00:23.042Z,-8.65
2022-12-03T12:02:54.119Z,-8.78
2022-12-03T12:05:26.375Z,-9.17
2022-12-03T12:07:55.369Z,-8.62
2022-12-03T12:10:45.663Z,-8.66
2022-12-03T12:13:50.252Z,-8.48
2022-12-03T12:16:50.303Z,-8.49
2022-12-03T12:19:43.279Z,-8.70
2022-12-03T12:22:32.031Z,-8.43
2022-12-03T12:25:01.330Z,-8.75
2022-12-03T12:27:34.587Z,-8.68
2022-12-03T12:30:06.725Z,-8.66
2022-12-03T12:32:41.984Z,-8.60
2022-12-03T12:35:20.252Z,-8.69
2022-12-03T12:37:56.826Z,-8.53
2022-12-03T12:40:28.905Z,-8.46
2022-12-03T12:43:03.205Z,-8.61
2022-12-03T12:45:38.012Z,-8.27
2022-12-03T12:48:14.335Z,-8.18
2022-12-03T12:50:46.642Z,-8.29
2022-12-03T12:53:21.706Z,-8.12
2022-12-03T12:55:57.384Z,-8.16
2022-12-03T12:58:26.365Z,-8.38
2022-12-03T13:00:56.145Z,-8.36
2022-12-03T13:03:26.463Z,-8.47
2022-12-03T13:06:00.936Z,-8.42
2022-12-03T13:08:35.170Z,-8.45
2022-12-03T13:11:06.069Z,-8.64
2022-12-03T13:13:43.342Z,-8.49
2022-12-03T13:16:16.609Z,-8.40
2022-12-03T13:18:47.127Z,-8.57
2022-12-03T13:21:22.503Z,-8.49
2022-12-03T13:23:51.271Z,-8.49
2022-12-03T13:26:34.587Z,-8.39
2022-12-03T13:29:15.174Z,-8.54
2022-12-03T13:31:48.179Z,-8.74
2022-12-03T13:34:21.066Z,-8.49
2022-12-03T13:36:57.629Z,-8.33
2022-12-03T13:39:33.443Z,-8.26
2022-12-03T13:42:20.554Z,-8.28
2022-12-03T13:44:50.493Z,-8.37
2022-12-03T13:47:22.236Z,-8.44
2022-12-03T13:49:56.500Z,-8.39
2022-12-03T13:52:27.411Z,-8.36
2022-12-03T13:54:58.445Z,-8.31
2022-12-03T13:57:27.095Z,-8.27
2022-12-03T13:59:55.664Z,-8.32
2022-12-03T14:02:24.598Z,-8.31
2022-12-03T14:04:58.544Z,-8.46
2022-12-03T14:07:33.331Z,-8.25
2022-12-03T14:10:01.686Z,-8.16
2022-12-03T14:12:33.821Z,-8.11
2022-12-03T14:15:02.754Z,-8.08
2022-12-03T14:17:33.027Z,-8.16
2022-12-03T14:20:01.929Z,-8.15
2022-12-03T14:22:33.676Z,-8.10
2022-12-03T14:25:02.018Z,-8.18
2022-12-03T14:27:31.800Z,-8.18
2022-12-03T14:30:00.162Z,-8.47
2022-12-03T14:32:28.612Z,-8.10
2022-12-03T14:34:56.960Z,-8.40
2022-12-03T14:37:28.248Z,-8.13
2022-12-03T14:39:58.114Z,-8.04
2022-12-03T14:42:26.453Z,-8.19
2022-12-03T14:44:54.749Z,-8.02
2022-12-03T14:47:23.995Z,-8.00
2022-12-03T14:49:53.314Z,-8.10
2022-12-03T14:52:21.976Z,-8.26
2022-12-03T14:54:50.327Z,-8.12
2022-12-03T14:57:20.200Z,-8.13
2022-12-03T14:59:48.733Z,-7.96
2022-12-03T15:02:20.162Z,-8.17
2022-12-03T15:04:48.577Z,-7.99
2022-12-03T15:07:16.884Z,-7.97
2022-12-03T15:09:45.256Z,-7.95
2022-12-03T15:12:13.674Z,-8.07
2022-12-03T15:14:43.669Z,-7.97
2022-12-03T15:17:12.047Z,-7.97
2022-12-03T15:19:40.410Z,-7.96
2022-12-03T15:22:08.819Z,-7.98
2022-12-03T15:24:37.374Z,-7.92
2022-12-03T15:27:05.978Z,-8.09
2022-12-03T15:29:34.410Z,-8.02
2022-12-03T15:32:04.257Z,-7.99
2022-12-03T15:34:32.605Z,-7.95
2022-12-03T15:37:00.932Z,-7.95
2022-12-03T15:39:29.690Z,-7.93
2022-12-03T15:41:58.034Z,-7.95
2022-12-03T15:44:26.475Z,-7.84
2022-12-03T15:46:54.852Z,-7.81
2022-12-03T15:49:27.217Z,-7.83
2022-12-03T15:51:55.795Z,-7.76
2022-12-03T15:54:24.166Z,-7.90
2022-12-03T15:56:57.034Z,-7.72
2022-12-03T15:59:25.927Z,-7.68
2022-12-03T16:01:54.428Z,-7.84
2022-12-03T16:04:24.463Z,-7.93
2022-12-03T16:06:52.913Z,-7.91
2022-12-03T16:09:26.929Z,-7.77
2022-12-03T16:11:57.175Z,-7.81
2022-12-03T16:14:25.536Z,-8.07
2022-12-03T16:16:56.302Z,-7.84
2022-12-03T16:19:27.207Z,-7.85
2022-12-03T16:21:55.607Z,-7.82
2022-12-03T16:24:24.017Z,-8.13
2022-12-03T16:26:52.845Z,-7.80
2022-12-03T16:29:23.762Z,-7.87
2022-12-03T16:31:52.336Z,-7.74
2022-12-03T16:34:20.675Z,-7.76
2022-12-03T16:36:50.459Z,-7.82
2022-12-03T16:39:18.841Z,-7.78
2022-12-03T16:41:47.343Z,-7.77
2022-12-03T16:44:31.987Z,-7.83
2022-12-03T16:47:01.649Z,-7.80
2022-12-03T16:49:30.043Z,-7.96
2022-12-03T16:51:59.724Z,-7.91
2022-12-03T16:54:28.110Z,-7.86
2022-12-03T16:56:56.450Z,-7.83
2022-12-03T16:59:27.212Z,-8.03
2022-12-03T17:01:58.441Z,-7.96
2022-12-03T17:04:26.879Z,-7.94
2022-12-03T17:06:55.227Z,-8.02
2022-12-03T17:09:24.966Z,-7.96
2022-12-03T17:11:53.627Z,-8.15
2022-12-03T17:14:22.590Z,-7.94
2022-12-03T17:16:51.023Z,-7.98
2022-12-03T17:19:19.566Z,-8.40
2022-12-03T17:21:47.954Z,-8.15
2022-12-03T17:24:16.284Z,-8.21
2022-12-03T17:26:46.470Z,-8.23
2022-12-03T17:29:15.463Z,-8.29
2022-12-03T17:31:43.834Z,-8.23
2022-12-03T17:34:12.277Z,-8.51
2022-12-03T17:36:40.618Z,-8.39
2022-12-03T17:39:08.940Z,-8.41
2022-12-03T17:41:37.570Z,-8.73
2022-12-03T17:44:11.333Z,-8.46
2022-12-03T17:46:41.511Z,-8.51
2022-12-03T17:49:09.836Z,-8.59
2022-12-03T17:51:39.463Z,-8.48
2022-12-03T17:54:07.785Z,-8.47
2022-12-03T17:56:36.459Z,-8.75
2022-12-03T17:59:06.201Z,-8.49
2022-12-03T18:01:35.176Z,-9.18
2022-12-03T18:04:03.743Z,-8.76
2022-12-03T18:06:32.284Z,-8.70
2022-12-03T18:09:00.786Z,-8.88
2022-12-03T18:11:29.621Z,-8.77
2022-12-03T18:14:00.433Z,-8.56
2022-12-03T18:16:31.161Z,-8.55
2022-12-03T18:19:06.169Z,-8.73
2022-12-03T18:21:35.392Z,-8.52
2022-12-03T18:24:03.916Z,-8.61
2022-12-03T18:26:32.295Z,-8.52
2022-12-03T18:29:00.770Z,-8.63
2022-12-03T18:31:30.764Z,-8.40
2022-12-03T18:33:59.313Z,-8.41
2022-12-03T18:36:30.156Z,-8.58
2022-12-03T18:39:01.135Z,-8.76
2022-12-03T18:41:29.679Z,-8.73
2022-12-03T18:43:58.014Z,-8.80
2022-12-03T18:49:16.990Z,-8.67
2022-12-03T18:51:48.528Z,-8.78
2022-12-03T18:54:18.083Z,-8.98
2022-12-03T18:56:49.561Z,-8.80
2022-12-03T18:59:17.942Z,-9.05
2022-12-03T19:01:46.393Z,-8.78
2022-12-03T19:04:16.253Z,-8.87
2022-12-03T19:06:44.693Z,-8.74
2022-12-03T19:09:13.210Z,-8.71
2022-12-03T19:11:41.671Z,-8.78
2022-12-03T19:14:11.199Z,-8.91
2022-12-03T19:16:40.192Z,-8.69
2022-12-03T19:19:09.719Z,-8.77
2022-12-03T19:21:39.383Z,-8.52
2022-12-03T19:24:25.261Z,-8.76
2022-12-03T19:26:55.571Z,-8.86
2022-12-03T19:29:26.697Z,-8.53
2022-12-03T19:31:55.155Z,-8.99
2022-12-03T19:34:23.628Z,-8.48
2022-12-03T19:36:53.464Z,-8.74
2022-12-03T19:39:21.781Z,-8.51
2022-12-03T19:41:50.183Z,-8.55
2022-12-03T19:44:21.887Z,-8.65
2022-12-03T19:46:54.351Z,-9.13
2022-12-03T19:49:22.700Z,-8.59
2022-12-03T19:51:51.436Z,-8.63
2022-12-03T19:54:24.479Z,-8.68
2022-12-03T19:56:55.977Z,-8.86
2022-12-03T19:59:24.542Z,-8.68
2022-12-03T20:01:53.093Z,-8.59
2022-12-03T20:04:21.695Z,-8.60
2022-12-03T20:06:50.118Z,-8.52
2022-12-03T20:09:18.625Z,-8.40
2022-12-03T20:12:17.430Z,-8.41
2022-12-03T20:14:45.910Z,-8.38
2022-12-03T20:17:14.303Z,-8.43
2022-12-03T20:19:45.004Z,-8.34
2022-12-03T20:22:13.461Z,-8.33
2022-12-03T20:24:43.935Z,-8.44
2022-12-03T20:27:15.419Z,-8.47
2022-12-03T20:29:46.861Z,-8.52
2022-12-03T20:32:15.782Z,-8.57
2022-12-03T20:34:45.747Z,-8.42
2022-12-03T20:37:17.737Z,-8.39
2022-12-03T20:39:46.197Z,-8.63
2022-12-03T20:42:17.145Z,-8.26
2022-12-03T20:44:45.482Z,-8.31
2022-12-03T20:47:13.799Z,-8.46
2022-12-03T20:49:42.061Z,-8.36
2022-12-03T20:52:11.439Z,-8.31
2022-12-03T20:54:39.737Z,-8.26
2022-12-03T20:57:12.826Z,-8.30
2022-12-03T20:59:42.515Z,-8.40
2022-12-03T21:02:11.276Z,-8.42
2022-12-03T21:04:39.773Z,-8.65
2022-12-03T21:07:08.178Z,-8.79
2022-12-03T21:09:36.531Z,-8.91
2022-12-03T21:12:05.179Z,-8.71
2022-12-03T21:14:36.332Z,-8.59
2022-12-03T21:17:08.914Z,-8.60
2022-12-03T21:19:41.469Z,-8.69
2022-12-03T21:22:09.900Z,-8.64
2022-12-03T21:24:42.906Z,-8.63
2022-12-03T21:27:11.283Z,-8.82
2022-12-03T21:29:40.372Z,-8.60
2022-12-03T21:32:10.175Z,-8.60
2022-12-03T21:34:38.893Z,-8.79
2022-12-03T21:37:07.345Z,-8.65
2022-12-03T21:39:35.816Z,-8.68
2022-12-03T21:42:34.530Z,-8.63
2022-12-03T21:44:55.720Z,-8.66
2022-12-03T21:47:25.633Z,-8.65
2022-12-03T21:49:54.775Z,-8.63
2022-12-03T21:52:23.411Z,-8.67
2022-12-03T21:54:53.533Z,-8.64
2022-12-03T21:57:22.043Z,-8.65
2022-12-03T21:59:50.401Z,-8.68
2022-12-03T22:02:18.894Z,-8.50
2022-12-03T22:04:52.181Z,-8.63
2022-12-03T22:07:20.613Z,-8.75
2022-12-03T22:09:49.016Z,-8.78
2022-12-03T22:12:17.639Z,-8.82
2022-12-03T22:14:46.023Z,-8.86
2022-12-03T22:17:15.825Z,-8.74
2022-12-03T22:19:44.149Z,-8.97
2022-12-03T22:22:13.989Z,-8.78
2022-12-03T22:24:42.590Z,-8.82
2022-12-03T22:27:11.077Z,-8.69
2022-12-03T22:29:41.141Z,-8.96
2022-12-03T22:32:09.772Z,-8.80
2022-12-03T22:34:41.058Z,-8.91
2022-12-03T22:37:09.738Z,-8.72
2022-12-03T22:39:39.692Z,-8.70
2022-12-03T22:42:08.294Z,-8.86
2022-12-03T22:44:36.819Z,-8.81
2022-12-03T22:47:08.288Z,-8.73
2022-12-03T22:49:36.595Z,-8.75
2022-12-03T22:52:06.267Z,-8.72
2022-12-03T22:54:34.715Z,-8.67
2022-12-03T22:57:06.972Z,-8.83
2022-12-03T22:59:38.135Z,-8.81
2022-12-03T23:02:06.535Z,-9.12
2022-12-03T23:04:35.984Z,-8.78
2022-12-03T23:07:04.445Z,-8.71
2022-12-03T23:09:32.773Z,-8.69
2022-12-03T23:12:01.093Z,-8.68
2022-12-03T23:14:30.970Z,-8.68
2022-12-03T23:17:00.446Z,-8.78
2022-12-03T23:19:28.784Z,-8.64
2022-12-03T23:21:57.330Z,-8.85
2022-12-03T23:24:26.261Z,-8.73
2022-12-03T23:26:55.048Z,-8.91
2022-12-03T23:29:23.356Z,-8.75
2022-12-03T23:31:53.203Z,-8.79
2022-12-03T23:34:21.905Z,-8.81
2022-12-03T23:36:50.316Z,-8.79
2022-12-03T23:39:18.800Z,-8.76
2022-12-03T23:41:47.262Z,-8.89
2022-12-03T23:44:15.654Z,-8.73
2022-12-03T23:46:44.138Z,-8.73
2022-12-03T23:49:13.896Z,-8.70
2022-12-03T23:51:42.266Z,-8.68
2022-12-03T23:54:12.236Z,-8.88
2022-12-03T23:56:43.858Z,-8.73
2022-12-03T23:59:12.290Z,-8.71
